createdAt,value
2019-02-28T00:02:22.446Z,5.90
2019-02-28T00:04:51.865Z,7.83
2019-02-28T00:07:21.764Z,5.73
2019-02-28T00:09:51.574Z,5.07
2019-02-28T00:12:21.511Z,7.20
2019-02-28T00:14:51.270Z,4.77
2019-02-28T00:17:21.150Z,4.33
2019-02-28T00:19:51.012Z,11.00
2019-02-28T00:22:21.041Z,4.53
2019-02-28T00:24:50.874Z,5.07
2019-02-28T00:27:21.919Z,5.37
2019-02-28T00:29:52.021Z,4.73
2019-02-28T00:32:24.793Z,4.63
2019-02-28T00:34:53.560Z,7.30
2019-02-28T00:37:24.621Z,7.90
2019-02-28T00:39:54.834Z,6.17
2019-02-28T00:42:24.594Z,6.87
2019-02-28T00:44:54.369Z,5.10
2019-02-28T00:47:24.278Z,5.67
2019-02-28T00:49:55.598Z,4.17
2019-02-28T00:52:25.567Z,4.90
2019-02-28T00:54:55.521Z,19.33
2019-02-28T00:57:25.370Z,14.20
2019-02-28T00:59:55.190Z,10.87
2019-02-28T01:02:25.005Z,6.20
2019-02-28T01:04:54.771Z,3.90
2019-02-28T01:07:24.552Z,7.53
2019-02-28T01:09:54.287Z,4.90
2019-02-28T01:12:24.101Z,4.80
2019-02-28T01:14:53.994Z,4.67
2019-02-28T01:17:24.119Z,5.77
2019-02-28T01:19:55.309Z,5.93
2019-02-28T01:22:26.731Z,6.20
2019-02-28T01:24:56.565Z,7.33
2019-02-28T01:27:26.270Z,2.73
2019-02-28T01:29:56.185Z,5.47
2019-02-28T01:32:26.190Z,6.20
2019-02-28T01:34:56.017Z,8.53
2019-02-28T01:37:25.842Z,5.10
2019-02-28T01:39:55.630Z,4.13
2019-02-28T01:42:25.378Z,5.50
2019-02-28T01:44:55.221Z,3.37
2019-02-28T01:47:25.097Z,4.07
2019-02-28T01:49:57.714Z,3.33
2019-02-28T01:52:26.386Z,4.80
2019-02-28T01:54:58.585Z,8.93
2019-02-28T01:57:27.643Z,2.43
2019-02-28T01:59:57.466Z,3.57
2019-02-28T02:02:27.334Z,3.53
2019-02-28T02:04:57.106Z,2.93
2019-02-28T02:07:27.082Z,4.37
2019-02-28T02:09:56.893Z,3.70
2019-02-28T02:12:31.322Z,4.30
2019-02-28T02:14:58.398Z,3.77
2019-02-28T02:17:28.326Z,5.17
2019-02-28T02:19:58.181Z,4.10
2019-02-28T02:22:27.985Z,3.20
2019-02-28T02:24:59.422Z,5.27
2019-02-28T02:27:29.302Z,7.60
2019-02-28T02:29:59.147Z,2.70
2019-02-28T02:32:28.978Z,3.63
2019-02-28T02:35:05.803Z,4.80
2019-02-28T02:37:31.286Z,2.30
2019-02-28T02:40:01.360Z,7.93
2019-02-28T02:42:31.600Z,4.30
2019-02-28T02:45:05.214Z,3.33
2019-02-28T02:47:33.085Z,3.53
2019-02-28T02:50:02.899Z,2.70
2019-02-28T02:52:32.719Z,2.80
2019-02-28T02:55:02.567Z,2.90
2019-02-28T02:57:32.422Z,4.97
2019-02-28T03:00:02.189Z,2.00
2019-02-28T03:02:33.154Z,2.53
2019-02-28T03:05:04.231Z,2.57
2019-02-28T03:07:34.082Z,4.20
2019-02-28T03:10:04.147Z,10.00
2019-02-28T03:12:33.894Z,3.13
2019-02-28T03:15:03.761Z,2.60
2019-02-28T03:17:33.604Z,2.50
2019-02-28T03:20:07.464Z,4.60
2019-02-28T03:22:35.018Z,3.47
2019-02-28T03:25:05.422Z,3.77
2019-02-28T03:27:35.178Z,4.03
2019-02-28T03:30:06.292Z,2.20
2019-02-28T03:32:42.184Z,2.67
2019-02-28T03:35:07.555Z,3.37
2019-02-28T03:37:37.407Z,3.20
2019-02-28T03:40:07.614Z,3.30
2019-02-28T03:42:37.443Z,2.30
2019-02-28T03:45:07.614Z,5.90
2019-02-28T03:47:37.375Z,6.00
2019-02-28T03:50:07.793Z,2.20
2019-02-28T03:52:42.105Z,2.70
2019-02-28T03:55:09.507Z,5.73
2019-02-28T03:57:39.329Z,4.20
2019-02-28T04:00:14.836Z,4.23
2019-02-28T04:02:44.622Z,2.23
2019-02-28T04:05:14.652Z,3.57
2019-02-28T04:07:44.516Z,4.67
2019-02-28T04:10:16.758Z,5.13
2019-02-28T04:12:47.600Z,4.00
2019-02-28T04:15:17.613Z,4.43
2019-02-28T04:17:50.087Z,6.27
2019-02-28T04:20:19.964Z,2.70
2019-02-28T04:22:49.836Z,4.40
2019-02-28T04:25:24.097Z,2.30
2019-02-28T04:27:51.101Z,3.37
2019-02-28T04:30:20.961Z,3.73
2019-02-28T04:32:50.775Z,4.63
2019-02-28T04:35:24.009Z,2.57
2019-02-28T04:37:52.252Z,2.50
2019-02-28T04:40:24.053Z,5.00
2019-02-28T04:42:53.486Z,2.63
2019-02-28T04:45:26.247Z,3.33
2019-02-28T04:47:55.091Z,3.53
2019-02-28T04:50:24.862Z,1.90
2019-02-28T04:52:54.856Z,8.00
2019-02-28T04:55:24.731Z,2.80
2019-02-28T04:57:54.880Z,4.07
2019-02-28T05:00:25.004Z,2.03
2019-02-28T05:02:55.092Z,2.50
2019-02-28T05:05:24.888Z,2.53
2019-02-28T05:07:54.684Z,3.77
2019-02-28T05:10:24.547Z,2.40
2019-02-28T05:12:54.403Z,2.80
2019-02-28T05:15:24.109Z,3.73
2019-02-28T05:17:55.867Z,2.00
2019-02-28T05:20:25.357Z,2.70
2019-02-28T05:22:55.151Z,4.97
2019-02-28T05:25:24.966Z,5.00
2019-02-28T05:27:54.791Z,3.40
2019-02-28T05:30:24.574Z,6.20
2019-02-28T05:32:54.442Z,2.20
2019-02-28T05:35:26.631Z,5.43
2019-02-28T05:37:55.815Z,8.27
2019-02-28T05:40:25.680Z,9.43
2019-02-28T05:42:58.280Z,5.00
2019-02-28T05:45:26.978Z,4.20
2019-02-28T05:47:56.907Z,4.00
2019-02-28T05:50:26.718Z,9.90
2019-02-28T05:52:56.550Z,2.43
2019-02-28T05:55:26.326Z,6.83
2019-02-28T05:57:56.127Z,7.00
2019-02-28T06:00:26.061Z,3.60
2019-02-28T06:02:58.076Z,6.20
2019-02-28T06:05:27.350Z,5.20
2019-02-28T06:07:57.119Z,7.67
2019-02-28T06:10:27.294Z,4.27
2019-02-28T06:12:57.056Z,6.77
2019-02-28T06:15:28.945Z,21.90
2019-02-28T06:17:58.404Z,4.30
2019-02-28T06:20:28.214Z,4.60
2019-02-28T06:22:58.291Z,5.40
2019-02-28T06:25:28.128Z,6.60
2019-02-28T06:27:57.970Z,7.23
2019-02-28T06:30:27.909Z,4.07
2019-02-28T06:32:59.168Z,4.10
2019-02-28T06:35:29.328Z,4.33
2019-02-28T06:37:59.421Z,9.50
2019-02-28T06:40:32.775Z,7.27
2019-02-28T06:43:00.681Z,7.43
2019-02-28T06:45:30.494Z,16.93
2019-02-28T06:48:00.291Z,6.47
2019-02-28T06:50:30.063Z,8.57
2019-02-28T06:52:59.981Z,18.00
2019-02-28T06:55:29.902Z,8.33
2019-02-28T06:57:59.824Z,12.10
2019-02-28T07:00:29.695Z,10.90
2019-02-28T07:03:03.427Z,7.30
2019-02-28T07:05:30.956Z,7.83
2019-02-28T07:08:00.768Z,12.57
2019-02-28T07:10:31.441Z,12.10
2019-02-28T07:13:04.106Z,8.70
2019-02-28T07:15:32.763Z,16.90
2019-02-28T07:18:02.646Z,10.03
2019-02-28T07:20:35.104Z,9.33
2019-02-28T07:23:04.958Z,8.83
2019-02-28T07:25:34.815Z,17.63
2019-02-28T07:28:04.684Z,13.60
2019-02-28T07:30:34.636Z,13.70
2019-02-28T07:33:09.367Z,13.87
2019-02-28T07:35:36.910Z,9.47
2019-02-28T07:38:06.707Z,12.70
2019-02-28T07:40:36.547Z,17.33
2019-02-28T07:43:12.267Z,15.03
2019-02-28T07:45:37.782Z,11.53
2019-02-28T07:48:08.068Z,12.20
2019-02-28T07:50:38.033Z,14.90
2019-02-28T07:53:08.805Z,17.47
2019-02-28T07:55:39.458Z,14.30
2019-02-28T07:58:09.403Z,17.73
2019-02-28T08:00:39.202Z,16.33
2019-02-28T08:03:11.285Z,21.53
2019-02-28T08:05:40.738Z,17.90
2019-02-28T08:08:10.770Z,23.47
2019-02-28T08:10:40.634Z,38.37
2019-02-28T08:13:10.534Z,19.17
2019-02-28T08:15:40.365Z,26.47
2019-02-28T08:18:10.193Z,18.50
2019-02-28T08:20:40.185Z,19.60
2019-02-28T08:23:09.945Z,23.80
2019-02-28T08:25:42.763Z,22.40
2019-02-28T08:28:11.488Z,26.43
2019-02-28T08:30:41.305Z,20.57
2019-02-28T08:33:11.156Z,29.70
2019-02-28T08:35:40.939Z,16.83
2019-02-28T08:38:10.784Z,20.63
2019-02-28T08:40:40.604Z,19.33
2019-02-28T08:43:13.395Z,29.67
2019-02-28T08:45:42.412Z,21.40
2019-02-28T08:48:12.799Z,26.60
2019-02-28T08:50:42.648Z,32.83
2019-02-28T08:53:15.331Z,21.60
2019-02-28T08:55:45.418Z,19.10
2019-02-28T08:58:15.323Z,27.73
2019-02-28T09:00:45.106Z,23.33
2019-02-28T09:03:14.907Z,17.40
2019-02-28T09:05:44.686Z,24.47
2019-02-28T09:08:14.588Z,23.93
2019-02-28T09:10:46.967Z,34.93
2019-02-28T09:13:16.396Z,53.17
2019-02-28T09:15:46.353Z,18.03
2019-02-28T09:18:16.219Z,29.23
2019-02-28T09:20:45.946Z,27.90
2019-02-28T09:23:15.754Z,34.20
2019-02-28T09:25:45.587Z,18.70
2019-02-28T09:28:15.762Z,25.10
2019-02-28T09:30:45.804Z,25.57
2019-02-28T09:33:15.564Z,24.03
2019-02-28T09:35:46.476Z,24.10
2019-02-28T09:38:16.331Z,25.43
2019-02-28T09:40:46.259Z,22.93
2019-02-28T09:43:16.049Z,16.80
2019-02-28T09:45:46.090Z,21.53
2019-02-28T09:48:15.897Z,21.90
2019-02-28T09:50:45.644Z,18.23
2019-02-28T09:53:16.631Z,18.80
2019-02-28T09:55:46.582Z,18.23
2019-02-28T09:58:16.530Z,15.03
2019-02-28T10:00:50.206Z,19.03
2019-02-28T10:03:18.677Z,18.43
2019-02-28T10:05:49.262Z,17.17
2019-02-28T10:08:19.144Z,15.93
2019-02-28T10:10:48.962Z,16.30
2019-02-28T10:13:19.802Z,15.20
2019-02-28T10:15:49.655Z,19.33
2019-02-28T10:18:19.490Z,15.67
2019-02-28T10:20:49.371Z,12.97
2019-02-28T10:23:21.410Z,24.57
2019-02-28T10:25:51.135Z,15.50
2019-02-28T10:28:21.410Z,21.37
2019-02-28T10:30:51.342Z,17.63
2019-02-28T10:33:21.282Z,15.73
2019-02-28T10:35:51.150Z,14.40
2019-02-28T10:38:21.090Z,20.13
2019-02-28T10:40:52.438Z,17.40
2019-02-28T10:43:22.542Z,16.70
2019-02-28T10:45:52.685Z,14.07
2019-02-28T10:48:22.751Z,20.37
2019-02-28T10:50:52.837Z,14.13
2019-02-28T10:53:22.587Z,21.40
2019-02-28T10:55:54.372Z,18.60
2019-02-28T10:58:23.939Z,18.57
2019-02-28T11:00:54.291Z,19.07
2019-02-28T11:03:24.341Z,21.03
2019-02-28T11:05:54.476Z,23.47
2019-02-28T11:08:25.905Z,15.53
2019-02-28T11:10:56.110Z,18.10
2019-02-28T11:13:28.494Z,19.73
2019-02-28T11:15:57.385Z,18.00
2019-02-28T11:18:27.343Z,20.43
2019-02-28T11:20:58.165Z,14.30
2019-02-28T11:23:28.813Z,18.47
2019-02-28T11:25:58.657Z,18.23
2019-02-28T11:28:29.344Z,18.60
2019-02-28T11:30:59.178Z,16.57
2019-02-28T11:33:29.320Z,14.10
2019-02-28T11:35:59.407Z,20.10
2019-02-28T11:38:29.219Z,18.83
2019-02-28T11:40:59.152Z,18.23
2019-02-28T11:43:29.019Z,15.50
2019-02-28T11:46:00.826Z,18.20
2019-02-28T11:48:30.364Z,27.43
2019-02-28T11:51:00.177Z,18.10
2019-02-28T11:53:30.068Z,25.13
2019-02-28T11:55:59.911Z,15.93
2019-02-28T11:58:30.495Z,23.97
2019-02-28T12:01:02.230Z,18.80
2019-02-28T12:03:35.536Z,20.07
2019-02-28T12:06:03.571Z,21.53
2019-02-28T12:08:33.479Z,21.80
2019-02-28T12:11:03.412Z,29.00
2019-02-28T12:13:33.226Z,20.43
2019-02-28T12:16:03.208Z,19.33
2019-02-28T12:18:33.011Z,25.77
2019-02-28T12:21:04.920Z,23.50
2019-02-28T12:23:34.414Z,18.57
2019-02-28T12:26:04.337Z,24.23
2019-02-28T12:28:35.281Z,16.30
2019-02-28T12:31:06.270Z,22.77
2019-02-28T12:33:36.135Z,20.00
2019-02-28T12:36:06.015Z,16.80
2019-02-28T12:38:35.864Z,19.23
2019-02-28T12:41:06.212Z,23.90
2019-02-28T12:43:36.051Z,21.70
2019-02-28T12:46:05.891Z,22.63
2019-02-28T12:48:35.718Z,23.50
2019-02-28T12:51:06.204Z,23.70
2019-02-28T12:53:36.119Z,21.73
2019-02-28T12:56:06.478Z,23.73
2019-02-28T12:58:39.023Z,19.70
2019-02-28T13:01:08.191Z,23.77
2019-02-28T13:03:38.162Z,21.17
2019-02-28T13:06:07.981Z,19.87
2019-02-28T13:08:38.629Z,20.10
2019-02-28T13:11:09.718Z,22.50
2019-02-28T13:13:39.798Z,21.13
2019-02-28T13:16:09.678Z,23.53
2019-02-28T13:18:39.667Z,22.33
2019-02-28T13:21:11.676Z,24.80
2019-02-28T13:23:41.575Z,23.03
2019-02-28T13:26:11.483Z,28.63
2019-02-28T13:28:41.382Z,20.80
2019-02-28T13:31:11.326Z,25.40
2019-02-28T13:33:41.290Z,22.10
2019-02-28T13:36:12.920Z,21.97
2019-02-28T13:38:42.685Z,23.57
2019-02-28T13:41:18.012Z,25.57
2019-02-28T13:43:46.562Z,24.20
2019-02-28T13:46:16.460Z,23.80
2019-02-28T13:48:46.480Z,21.33
2019-02-28T13:51:16.706Z,26.90
2019-02-28T13:53:47.501Z,20.17
2019-02-28T13:56:18.078Z,23.33
2019-02-28T13:58:47.873Z,23.90
2019-02-28T14:01:19.465Z,24.67
2019-02-28T14:03:49.369Z,23.97
2019-02-28T14:06:19.993Z,20.07
2019-02-28T14:08:49.845Z,24.33
2019-02-28T14:11:19.998Z,33.40
2019-02-28T14:13:49.783Z,23.13
2019-02-28T14:16:20.174Z,21.20
2019-02-28T14:18:50.026Z,29.80
2019-02-28T14:21:19.900Z,22.47
2019-02-28T14:23:52.383Z,22.83
2019-02-28T14:26:21.214Z,23.53
2019-02-28T14:28:51.021Z,21.33
2019-02-28T14:31:21.088Z,23.00
2019-02-28T14:33:51.488Z,28.00
2019-02-28T14:36:22.522Z,19.53
2019-02-28T14:38:52.363Z,20.10
2019-02-28T14:41:24.714Z,29.03
2019-02-28T14:43:56.026Z,22.03
2019-02-28T14:46:25.303Z,26.27
2019-02-28T14:48:55.062Z,19.70
2019-02-28T14:51:25.471Z,29.97
2019-02-28T14:53:56.556Z,21.90
2019-02-28T14:56:26.414Z,21.03
2019-02-28T14:58:57.509Z,20.43
2019-02-28T15:01:27.521Z,20.67
2019-02-28T15:03:58.590Z,21.20
2019-02-28T15:06:29.604Z,22.23
2019-02-28T15:09:00.045Z,22.30
2019-02-28T15:11:30.075Z,21.63
2019-02-28T15:14:00.182Z,22.13
2019-02-28T15:16:30.489Z,20.07
2019-02-28T15:19:00.380Z,19.73
2019-02-28T15:21:30.221Z,30.80
2019-02-28T15:24:00.064Z,21.00
2019-02-28T15:26:33.031Z,21.83
2019-02-28T15:29:01.431Z,18.97
2019-02-28T15:31:31.363Z,21.20
2019-02-28T15:34:02.289Z,22.00
2019-02-28T15:36:32.772Z,21.63
2019-02-28T15:39:02.658Z,20.73
2019-02-28T15:41:33.689Z,18.33
2019-02-28T15:44:04.095Z,21.93
2019-02-28T15:46:35.405Z,19.57
2019-02-28T15:49:06.492Z,22.07
2019-02-28T15:51:36.949Z,21.40
2019-02-28T15:54:06.963Z,20.20
2019-02-28T15:56:36.808Z,23.17
2019-02-28T15:59:06.858Z,18.10
2019-02-28T16:01:36.718Z,20.03
2019-02-28T16:04:07.996Z,20.50
2019-02-28T16:06:37.769Z,21.63
2019-02-28T16:09:11.374Z,21.57
2019-02-28T16:11:41.944Z,22.90
2019-02-28T16:14:14.587Z,19.37
2019-02-28T16:16:43.371Z,17.10
2019-02-28T16:19:14.048Z,18.37
2019-02-28T16:21:43.894Z,24.07
2019-02-28T16:24:14.559Z,18.33
2019-02-28T16:26:45.378Z,16.40
2019-02-28T16:29:20.510Z,21.00
2019-02-28T16:31:49.886Z,18.63
2019-02-28T16:34:20.325Z,18.77
2019-02-28T16:36:50.690Z,20.03
2019-02-28T16:39:21.111Z,17.90
2019-02-28T16:41:51.187Z,17.70
2019-02-28T16:44:24.209Z,28.47
2019-02-28T16:46:54.680Z,23.90
2019-02-28T16:49:25.701Z,19.57
2019-02-28T16:51:56.260Z,19.33
2019-02-28T16:54:29.679Z,23.87
2019-02-28T16:57:00.315Z,18.33
2019-02-28T16:59:31.611Z,25.00
2019-02-28T17:02:01.661Z,18.33
2019-02-28T17:04:32.774Z,20.57
2019-02-28T17:07:03.139Z,17.80
2019-02-28T17:09:41.206Z,21.87
2019-02-28T17:12:19.187Z,20.07
2019-02-28T17:14:49.316Z,19.03
2019-02-28T17:17:29.024Z,19.10
2019-02-28T17:20:02.839Z,22.40
2019-02-28T17:22:32.055Z,29.63
2019-02-28T17:25:02.242Z,21.93
2019-02-28T17:27:53.884Z,25.37
2019-02-28T17:30:36.324Z,22.23
2019-02-28T17:33:08.616Z,22.93
2019-02-28T17:35:37.153Z,25.23
2019-02-28T17:38:08.895Z,22.23
2019-02-28T17:40:40.038Z,23.73
2019-02-28T17:43:10.002Z,23.37
2019-02-28T17:45:40.007Z,23.73
2019-02-28T17:48:34.972Z,25.90
2019-02-28T17:51:18.805Z,18.23
2019-02-28T17:54:20.796Z,26.00
2019-02-28T17:57:10.647Z,22.33
2019-02-28T18:00:22.082Z,24.10
2019-02-28T18:03:14.207Z,27.87
2019-02-28T18:06:26.023Z,32.20
2019-02-28T18:09:23.319Z,19.40
2019-02-28T18:12:29.588Z,21.47
2019-02-28T18:15:10.682Z,24.40
2019-02-28T18:18:26.369Z,28.00
2019-02-28T18:21:22.064Z,24.57
2019-02-28T18:24:28.001Z,33.20
2019-02-28T18:27:43.740Z,33.73
2019-02-28T18:30:48.443Z,26.73
2019-02-28T18:33:19.507Z,27.87
2019-02-28T18:35:49.513Z,23.87
2019-02-28T18:38:19.428Z,26.80
2019-02-28T18:40:49.613Z,27.43
2019-02-28T18:43:19.650Z,23.43
2019-02-28T18:45:49.881Z,31.83
2019-02-28T18:48:19.982Z,39.53
2019-02-28T18:50:50.444Z,30.10
2019-02-28T18:53:21.740Z,25.10
2019-02-28T18:55:52.010Z,28.80
2019-02-28T18:58:21.998Z,31.43
2019-02-28T19:01:00.015Z,28.20
2019-02-28T19:03:31.641Z,24.93
2019-02-28T19:06:02.492Z,26.57
2019-02-28T19:08:34.235Z,27.47
2019-02-28T19:11:05.201Z,24.57
2019-02-28T19:13:36.459Z,27.17
2019-02-28T19:16:06.910Z,21.87
2019-02-28T19:18:37.543Z,24.50
2019-02-28T19:21:08.259Z,30.50
2019-02-28T19:23:40.871Z,25.30
2019-02-28T19:26:12.045Z,22.87
2019-02-28T19:28:44.934Z,22.87
2019-02-28T19:31:15.825Z,28.30
2019-02-28T19:33:47.762Z,26.57
2019-02-28T19:36:18.775Z,23.97
2019-02-28T19:38:49.299Z,24.00
2019-02-28T19:41:22.862Z,29.60
2019-02-28T19:43:54.088Z,30.87
2019-02-28T19:46:24.573Z,24.73
2019-02-28T19:48:56.073Z,28.23
2019-02-28T19:51:27.410Z,24.80
2019-02-28T19:53:58.288Z,22.87
2019-02-28T19:56:31.642Z,25.30
2019-02-28T19:59:01.933Z,31.87
2019-02-28T20:01:33.052Z,24.13
2019-02-28T20:04:06.509Z,24.90
2019-02-28T20:06:37.751Z,26.20
2019-02-28T20:09:11.152Z,28.17
2019-02-28T20:11:44.016Z,21.27
2019-02-28T20:14:15.936Z,21.83
2019-02-28T20:16:47.120Z,31.10
2019-02-28T20:19:17.965Z,21.77
2019-02-28T20:21:50.224Z,25.90
2019-02-28T20:24:21.269Z,26.13
2019-02-28T20:26:53.632Z,22.10
2019-02-28T20:29:24.474Z,28.37
2019-02-28T20:31:55.884Z,27.50
2019-02-28T20:34:29.236Z,19.40
2019-02-28T20:36:59.957Z,29.47
2019-02-28T20:39:31.341Z,24.43
2019-02-28T20:42:01.531Z,23.13
2019-02-28T20:44:32.053Z,26.17
2019-02-28T20:47:04.764Z,22.83
2019-02-28T20:49:36.427Z,23.70
2019-02-28T20:52:07.987Z,20.83
2019-02-28T20:54:39.164Z,22.03
2019-02-28T20:57:09.001Z,23.23
2019-02-28T20:59:38.841Z,24.40
2019-02-28T21:02:08.834Z,23.73
2019-02-28T21:04:38.666Z,25.80
2019-02-28T21:07:08.947Z,28.17
2019-02-28T21:09:44.731Z,30.67
2019-02-28T21:12:10.206Z,21.07
2019-02-28T21:14:40.099Z,26.20
2019-02-28T21:17:11.878Z,20.60
2019-02-28T21:19:42.265Z,26.67
2019-02-28T21:22:13.428Z,24.53
2019-02-28T21:24:43.738Z,25.07
2019-02-28T21:27:16.589Z,23.87
2019-02-28T21:29:47.188Z,24.87
2019-02-28T21:32:18.967Z,28.10
2019-02-28T21:34:49.469Z,32.43
2019-02-28T21:37:19.721Z,28.47
2019-02-28T21:39:50.524Z,30.83
2019-02-28T21:42:21.116Z,23.50
2019-02-28T21:44:51.387Z,28.90
2019-02-28T21:47:22.130Z,27.67
2019-02-28T21:49:52.130Z,24.03
2019-02-28T21:52:22.286Z,26.40
2019-02-28T21:54:52.474Z,30.67
2019-02-28T21:57:22.791Z,23.03
2019-02-28T21:59:53.026Z,28.87
2019-02-28T22:02:23.399Z,30.43
2019-02-28T22:04:53.803Z,29.57
2019-02-28T22:07:24.253Z,28.23
2019-02-28T22:09:54.605Z,28.20
2019-02-28T22:12:24.781Z,38.33
2019-02-28T22:14:54.947Z,36.10
2019-02-28T22:17:25.604Z,25.97
2019-02-28T22:19:55.912Z,26.97
2019-02-28T22:22:25.986Z,26.20
2019-02-28T22:24:56.190Z,24.63
2019-02-28T22:27:26.151Z,26.60
2019-02-28T22:29:58.170Z,20.67
2019-02-28T22:32:41.107Z,26.07
2019-02-28T22:35:27.339Z,26.00
2019-02-28T22:37:57.191Z,24.07
2019-02-28T22:40:27.140Z,27.40
2019-02-28T22:42:57.022Z,26.73
2019-02-28T22:45:26.947Z,27.43
2019-02-28T22:47:56.819Z,31.93
2019-02-28T22:50:26.774Z,22.80
2019-02-28T22:52:56.651Z,25.70
2019-02-28T22:55:26.762Z,25.77
2019-02-28T22:57:57.005Z,24.50
2019-02-28T23:00:38.579Z,24.70
2019-02-28T23:03:09.261Z,23.47
2019-02-28T23:05:39.125Z,21.83
2019-02-28T23:08:09.036Z,19.87
2019-02-28T23:10:38.935Z,24.90
2019-02-28T23:13:08.984Z,22.90
2019-02-28T23:15:38.842Z,21.37
2019-02-28T23:18:08.794Z,27.30
2019-02-28T23:20:38.696Z,22.87
2019-02-28T23:23:08.897Z,19.90
2019-02-28T23:25:38.674Z,21.37
2019-02-28T23:28:26.040Z,21.10
2019-02-28T23:31:54.437Z,19.67
2019-02-28T23:34:30.951Z,16.90
2019-02-28T23:37:00.784Z,24.37
2019-02-28T23:39:30.628Z,18.80
2019-02-28T23:42:00.439Z,19.63
2019-02-28T23:44:30.316Z,15.83
2019-02-28T23:47:00.381Z,20.90
2019-02-28T23:49:30.250Z,20.80
2019-02-28T23:52:00.151Z,20.53
2019-02-28T23:54:29.899Z,25.33
2019-02-28T23:57:00.063Z,18.37
2019-02-28T23:59:29.804Z,17.07
